Terminal Aerodrome Forecast
Issued by NWS

Home | Current Version | Previous Version | Graphics & Text | Print | Product List | Glossary On
Versions: 1 2 3 4 5 6 7 8 9 10 11 12 13 14 15 16 17 18
000
FTUS43 KGRB 211332 AAA
TAFATW
TAF AMD
KATW 211332Z 2114/2212 22008KT P6SM SCT008 OVC015
      TEMPO 2114/2115 31030G40KT 1SM TSRA BR BKN008CB
     FM211600 23012KT P6SM BKN030 OVC060
     FM211800 23012KT P6SM BKN035
     FM212100 24012KT P6SM SCT040
     FM220800 27004KT 4SM BR SCT025
     FM221000 29004KT 2SM BR SCT015=

USA.gov is the U.S. government's official web portal to all federal, state and local government web resources and services.